Time;durP1;ratioP1;P1;durP2;ratioP2;P2;SDS_P1;SDS_P2;PMS_P1;PMS_P2;Temp;Humidity;BMP_temperature;BMP_pressure;BME280_temperature;BME280_humidity;BME280_pressure;Samples;Min_cycle;Max_cycle;Signal;HPM_P1;HPM_P2
2023/09/30 00:01:45;;;;;;;6.17;6.07;;;10.90;99.90;;;;;;5078181;28;20783;-66
2023/09/30 00:04:14;;;;;;;5.53;5.43;;;11.00;99.90;;;;;;5088865;28;20535;-67
2023/09/30 00:06:42;;;;;;;6.10;6.00;;;11.00;99.90;;;;;;5078202;28;20475;-66
2023/09/30 00:09:08;;;;;;;6.30;6.20;;;11.10;99.90;;;;;;5080880;28;20528;-65
2023/09/30 00:11:36;;;;;;;6.33;6.23;;;11.20;99.90;;;;;;5069551;28;20461;-66
2023/09/30 00:14:03;;;;;;;5.20;5.10;;;11.40;99.90;;;;;;5085609;28;20450;-66
2023/09/30 00:16:30;;;;;;;4.67;4.67;;;11.40;99.90;;;;;;5087918;28;20449;-66
2023/09/30 00:18:58;;;;;;;4.73;4.73;;;11.50;99.90;;;;;;5083303;28;20466;-67
2023/09/30 00:21:26;;;;;;;4.50;4.50;;;11.60;99.90;;;;;;5084407;28;20516;-67
2023/09/30 00:23:53;;;;;;;4.43;4.43;;;11.60;99.90;;;;;;5074045;28;20498;-66
2023/09/30 00:26:21;;;;;;;5.00;5.00;;;11.70;99.90;;;;;;5077182;28;20478;-66
2023/09/30 00:28:49;;;;;;;5.53;5.43;;;11.80;99.90;;;;;;5088935;28;20478;-67
2023/09/30 00:31:16;;;;;;;4.77;4.77;;;11.90;99.90;;;;;;5092825;28;20450;-67
2023/09/30 00:33:43;;;;;;;5.33;5.23;;;12.00;99.90;;;;;;5082760;28;20714;-66
2023/09/30 00:36:12;;;;;;;4.63;4.63;;;12.00;99.90;;;;;;5085722;28;20511;-66
2023/09/30 00:38:40;;;;;;;4.37;4.37;;;12.00;99.90;;;;;;5081307;28;21011;-65
2023/09/30 00:41:07;;;;;;;4.60;4.60;;;12.00;99.90;;;;;;5076153;28;20964;-66
2023/09/30 00:43:35;;;;;;;4.30;4.30;;;12.00;99.90;;;;;;5083576;28;20524;-67
2023/09/30 00:46:05;;;;;;;4.40;4.40;;;12.00;99.90;;;;;;5087763;28;21133;-67
2023/09/30 00:48:34;;;;;;;5.20;5.10;;;12.00;99.90;;;;;;5083306;28;20827;-66
2023/09/30 00:51:02;;;;;;;5.97;5.87;;;11.90;99.90;;;;;;5077503;28;20549;-66
2023/09/30 00:53:30;;;;;;;5.73;5.63;;;11.90;99.90;;;;;;5078630;28;20459;-66
2023/09/30 00:55:59;;;;;;;4.27;4.27;;;12.00;99.90;;;;;;5079819;28;20461;-66
2023/09/30 00:58:28;;;;;;;5.47;5.37;;;12.00;99.90;;;;;;5088893;28;20457;-67
2023/09/30 01:00:57;;;;;;;5.30;5.20;;;11.90;99.90;;;;;;5080096;28;20468;-66
2023/09/30 01:03:24;;;;;;;4.83;4.83;;;11.80;99.90;;;;;;5085138;28;20548;-66
2023/09/30 01:05:51;;;;;;;5.47;5.37;;;11.70;99.90;;;;;;5082680;28;20462;-67
2023/09/30 01:08:22;;;;;;;6.43;6.33;;;11.70;99.90;;;;;;5079113;28;20494;-66
2023/09/30 01:10:50;;;;;;;6.20;6.10;;;11.70;99.90;;;;;;5071982;28;20474;-67
2023/09/30 01:13:19;;;;;;;6.73;6.63;;;11.70;99.90;;;;;;5082444;28;20466;-66
2023/09/30 01:15:47;;;;;;;5.63;5.53;;;11.70;99.90;;;;;;5091779;28;20458;-65
2023/09/30 01:18:14;;;;;;;5.97;5.87;;;11.80;99.90;;;;;;5092725;28;20493;-66
2023/09/30 01:20:41;;;;;;;5.53;5.43;;;11.70;99.90;;;;;;5084466;28;20471;-66
2023/09/30 01:23:12;;;;;;;5.80;5.70;;;11.60;99.90;;;;;;5083427;28;20510;-67
2023/09/30 01:25:43;;;;;;;5.50;5.40;;;11.60;99.90;;;;;;5080737;28;20498;-67
2023/09/30 01:28:11;;;;;;;5.97;5.87;;;11.50;99.90;;;;;;5082280;28;20493;-65
2023/09/30 01:30:38;;;;;;;6.63;6.53;;;11.40;99.90;;;;;;5084238;28;20465;-66
2023/09/30 01:33:07;;;;;;;6.80;6.70;;;11.50;99.90;;;;;;5075536;28;20469;-66
2023/09/30 01:35:34;;;;;;;6.27;6.17;;;11.60;99.90;;;;;;5091992;28;20822;-67
2023/09/30 01:38:01;;;;;;;6.23;6.13;;;11.80;99.90;;;;;;5074949;28;20474;-67
2023/09/30 01:40:29;;;;;;;6.13;6.03;;;11.80;99.90;;;;;;5081826;28;20466;-66
2023/09/30 01:42:57;;;;;;;5.90;5.80;;;11.70;99.90;;;;;;5091106;28;20453;-66
2023/09/30 01:45:25;;;;;;;5.97;5.87;;;11.70;99.90;;;;;;5081446;28;20489;-66
2023/09/30 01:47:52;;;;;;;5.70;5.60;;;11.60;99.90;;;;;;5091603;28;20453;-66
2023/09/30 01:50:19;;;;;;;6.03;5.93;;;11.50;99.90;;;;;;5085943;28;20462;-66
2023/09/30 01:52:46;;;;;;;6.10;6.00;;;11.30;99.90;;;;;;5080397;28;21033;-67
2023/09/30 01:55:13;;;;;;;6.40;6.30;;;11.20;99.90;;;;;;5079201;28;20861;-67
2023/09/30 01:57:43;;;;;;;6.60;6.50;;;11.20;99.90;;;;;;5084978;28;20836;-66
2023/09/30 02:00:12;;;;;;;6.20;6.10;;;11.20;99.90;;;;;;5078813;28;20458;-67
2023/09/30 02:02:39;;;;;;;7.00;6.90;;;11.10;99.90;;;;;;5084694;28;20562;-66
2023/09/30 02:05:07;;;;;;;6.50;6.40;;;11.00;99.90;;;;;;5080104;28;20494;-67
2023/09/30 02:07:36;;;;;;;6.03;5.93;;;11.00;99.90;;;;;;5087398;28;20475;-66
2023/09/30 02:10:03;;;;;;;7.20;7.10;;;11.00;99.90;;;;;;5079882;28;20461;-67
2023/09/30 02:12:31;;;;;;;6.70;6.60;;;10.90;99.90;;;;;;5083602;28;20474;-66
2023/09/30 02:15:00;;;;;;;7.23;7.13;;;10.90;99.90;;;;;;5084336;28;20821;-66
2023/09/30 02:17:28;;;;;;;7.17;7.07;;;10.80;99.90;;;;;;5091197;28;20454;-66
2023/09/30 02:19:55;;;;;;;7.50;7.40;;;10.70;99.90;;;;;;5080721;28;21036;-66
2023/09/30 02:22:24;;;;;;;7.73;7.63;;;10.70;99.90;;;;;;5085568;28;20465;-67
2023/09/30 02:24:51;;;;;;;7.87;7.77;;;10.70;99.90;;;;;;5090569;28;20508;-67
2023/09/30 02:27:18;;;;;;;7.50;7.40;;;10.70;99.90;;;;;;5081405;28;21075;-67
2023/09/30 02:29:45;;;;;;;7.47;7.37;;;10.80;99.90;;;;;;5081102;28;20631;-66
2023/09/30 02:32:14;;;;;;;6.80;6.70;;;10.80;99.90;;;;;;5090874;28;20450;-66
2023/09/30 02:34:42;;;;;;;7.40;7.30;;;10.80;99.90;;;;;;5091246;28;20458;-66
2023/09/30 02:37:10;;;;;;;7.50;7.40;;;10.80;99.90;;;;;;5087098;28;20503;-66
2023/09/30 02:39:38;;;;;;;7.43;7.33;;;10.90;99.90;;;;;;5072919;28;20463;-66
2023/09/30 02:42:06;;;;;;;7.50;7.40;;;11.00;99.90;;;;;;5080225;28;20490;-67
2023/09/30 02:44:34;;;;;;;7.40;7.30;;;11.00;99.90;;;;;;5082905;28;20474;-66
2023/09/30 02:47:02;;;;;;;7.07;6.97;;;11.00;99.90;;;;;;5085205;28;20822;-67
2023/09/30 02:49:34;;;;;;;6.77;6.67;;;11.00;99.90;;;;;;5090376;28;20462;-68
2023/09/30 02:52:01;;;;;;;7.33;7.23;;;10.90;99.90;;;;;;5080826;28;20458;-67
2023/09/30 02:54:30;;;;;;;7.43;7.33;;;10.90;99.90;;;;;;5077240;28;21052;-66
2023/09/30 02:56:57;;;;;;;7.30;7.20;;;10.90;99.90;;;;;;5085930;28;20450;-68
2023/09/30 02:59:23;;;;;;;7.33;7.23;;;10.90;99.90;;;;;;5090299;28;20469;-68
2023/09/30 03:01:50;;;;;;;7.50;7.40;;;10.90;99.90;;;;;;5072526;28;20458;-66
2023/09/30 03:04:19;;;;;;;7.40;7.30;;;10.90;99.90;;;;;;5086941;28;20496;-67
2023/09/30 03:06:48;;;;;;;7.37;7.27;;;10.90;99.90;;;;;;5075907;28;20550;-67
2023/09/30 03:09:15;;;;;;;7.60;7.50;;;10.80;99.90;;;;;;5087725;28;20829;-68
2023/09/30 03:11:43;;;;;;;8.63;8.53;;;10.80;99.90;;;;;;5082588;28;20544;-66
2023/09/30 03:14:11;;;;;;;8.50;8.40;;;10.80;99.90;;;;;;5081505;28;20461;-68
2023/09/30 03:16:38;;;;;;;7.13;7.03;;;11.00;99.90;;;;;;5086743;28;20842;-66
2023/09/30 03:19:08;;;;;;;7.10;7.00;;;11.00;99.90;;;;;;5089157;28;20750;-67
2023/09/30 03:21:36;;;;;;;6.67;6.57;;;10.90;99.90;;;;;;5089798;28;20828;-67
2023/09/30 03:24:04;;;;;;;7.50;7.40;;;10.80;99.90;;;;;;5087986;28;20482;-67
2023/09/30 03:26:31;;;;;;;7.03;6.93;;;10.60;99.90;;;;;;5074056;28;20467;-66
2023/09/30 03:28:59;;;;;;;7.77;7.67;;;10.60;99.90;;;;;;5090090;28;20488;-66
2023/09/30 03:31:26;;;;;;;6.70;6.60;;;10.60;99.90;;;;;;5068068;28;20993;-67
2023/09/30 03:33:55;;;;;;;6.57;6.47;;;10.80;99.90;;;;;;5088448;28;20485;-68
2023/09/30 03:36:24;;;;;;;7.60;7.50;;;10.90;99.90;;;;;;5079550;28;20838;-67
2023/09/30 03:38:52;;;;;;;6.70;6.60;;;11.00;99.90;;;;;;5078240;28;20487;-67
2023/09/30 03:41:20;;;;;;;6.23;6.13;;;11.00;99.90;;;;;;5084003;28;20572;-66
2023/09/30 03:43:49;;;;;;;6.60;6.50;;;10.90;99.90;;;;;;5082904;28;20458;-67
2023/09/30 03:46:16;;;;;;;6.63;6.53;;;10.80;99.90;;;;;;5089500;28;20587;-66
2023/09/30 03:48:44;;;;;;;6.90;6.80;;;10.80;99.90;;;;;;5088199;28;20481;-68
2023/09/30 03:51:13;;;;;;;7.70;7.60;;;10.60;99.90;;;;;;5083023;28;20467;-67
2023/09/30 03:53:40;;;;;;;8.33;8.23;;;10.60;99.90;;;;;;5076023;28;20463;-67
2023/09/30 03:56:07;;;;;;;7.33;7.23;;;10.60;99.90;;;;;;5074110;28;20508;-66
2023/09/30 03:58:38;;;;;;;8.43;8.33;;;10.70;99.90;;;;;;5085498;28;20553;-67
2023/09/30 04:01:07;;;;;;;8.80;8.70;;;10.60;99.90;;;;;;5084041;28;20536;-68
2023/09/30 04:03:34;;;;;;;8.50;8.40;;;10.60;99.90;;;;;;5088917;28;20466;-69
2023/09/30 04:06:02;;;;;;;8.27;8.17;;;10.60;99.90;;;;;;5087643;28;21063;-68
2023/09/30 04:08:29;;;;;;;8.47;8.37;;;10.50;99.90;;;;;;5079700;28;20454;-67
2023/09/30 04:10:56;;;;;;;8.43;8.33;;;10.40;99.90;;;;;;5078962;28;20645;-68
2023/09/30 04:13:23;;;;;;;8.73;8.63;;;10.30;99.90;;;;;;5073852;28;20949;-67
2023/09/30 04:15:53;;;;;;;8.20;8.10;;;10.20;99.90;;;;;;5080895;28;20940;-67
2023/09/30 04:18:21;;;;;;;9.07;8.97;;;10.20;99.90;;;;;;5089198;28;20462;-67
2023/09/30 04:20:47;;;;;;;8.93;8.83;;;10.20;99.90;;;;;;5080695;28;20459;-67
2023/09/30 04:23:15;;;;;;;9.00;8.87;;;10.30;99.90;;;;;;5080981;28;20469;-67
2023/09/30 04:25:44;;;;;;;7.70;7.60;;;10.50;99.90;;;;;;5088766;28;20497;-68
2023/09/30 04:28:11;;;;;;;7.63;7.53;;;10.70;99.90;;;;;;5089131;28;20477;-66
2023/09/30 04:30:38;;;;;;;7.83;7.73;;;10.60;99.90;;;;;;5077132;28;20498;-68
2023/09/30 04:33:11;;;;;;;8.40;8.30;;;10.50;99.90;;;;;;5089137;28;20489;-68
2023/09/30 04:35:39;;;;;;;8.57;8.47;;;10.40;99.90;;;;;;5079873;28;20554;-68
2023/09/30 04:38:07;;;;;;;8.60;8.50;;;10.30;99.90;;;;;;5077333;28;20512;-67
2023/09/30 04:40:35;;;;;;;8.23;8.13;;;10.30;99.90;;;;;;5085552;28;20948;-68
2023/09/30 04:43:02;;;;;;;7.90;7.80;;;10.20;99.90;;;;;;5088774;28;20485;-68
2023/09/30 04:45:29;;;;;;;9.07;8.93;;;10.00;99.90;;;;;;5089038;28;20900;-68
2023/09/30 04:47:57;;;;;;;9.00;8.90;;;9.90;99.90;;;;;;5077608;28;20466;-67
2023/09/30 04:50:26;;;;;;;9.20;9.00;;;9.90;99.90;;;;;;5083668;28;20458;-67
2023/09/30 04:52:53;;;;;;;8.57;8.47;;;9.80;99.90;;;;;;5081625;28;20833;-68
2023/09/30 04:55:21;;;;;;;9.33;9.13;;;9.70;99.90;;;;;;5090672;28;20491;-68
2023/09/30 04:57:50;;;;;;;8.57;8.47;;;9.70;99.90;;;;;;5092765;28;20508;-65
2023/09/30 05:00:18;;;;;;;9.00;8.90;;;9.70;99.90;;;;;;5090754;28;20450;-67
2023/09/30 05:02:46;;;;;;;9.30;9.13;;;9.70;99.90;;;;;;5081165;28;20467;-65
2023/09/30 05:05:12;;;;;;;8.97;8.87;;;9.70;99.90;;;;;;5077049;28;20499;-65
2023/09/30 05:07:41;;;;;;;9.40;9.20;;;9.70;99.90;;;;;;5075290;28;20470;-69
2023/09/30 05:10:11;;;;;;;9.60;9.40;;;9.60;99.90;;;;;;5089497;28;20481;-66
2023/09/30 05:12:38;;;;;;;9.53;9.33;;;9.60;99.90;;;;;;5081338;28;20461;-67
2023/09/30 05:15:06;;;;;;;10.13;9.93;;;9.60;99.90;;;;;;5088964;28;20474;-67
2023/09/30 05:17:33;;;;;;;10.10;9.90;;;9.60;99.90;;;;;;5073394;28;20454;-66
2023/09/30 05:20:00;;;;;;;9.60;9.40;;;9.60;99.90;;;;;;5072601;28;20954;-67
2023/09/30 05:22:27;;;;;;;9.60;9.40;;;9.50;99.90;;;;;;5082423;28;20483;-67
2023/09/30 05:24:57;;;;;;;10.50;10.30;;;9.50;99.90;;;;;;5080369;28;20460;-67
2023/09/30 05:27:23;;;;;;;11.50;11.20;;;9.40;99.90;;;;;;5076570;28;20501;-68
2023/09/30 05:29:50;;;;;;;10.90;10.70;;;9.50;99.90;;;;;;5089478;28;20469;-66
2023/09/30 05:32:18;;;;;;;10.20;10.00;;;9.50;99.90;;;;;;5081763;28;20459;-67
2023/09/30 05:34:45;;;;;;;10.83;10.63;;;9.50;99.90;;;;;;5079855;28;21120;-67
2023/09/30 05:37:12;;;;;;;11.13;10.90;;;9.50;99.90;;;;;;5077845;28;20520;-67
2023/09/30 05:39:40;;;;;;;11.23;10.97;;;9.50;99.90;;;;;;5078086;28;20969;-66
2023/09/30 05:42:12;;;;;;;11.10;10.90;;;9.50;99.90;;;;;;5079402;28;20515;-68
2023/09/30 05:44:41;;;;;;;10.70;10.50;;;9.50;99.90;;;;;;5076187;28;20990;-68
2023/09/30 05:47:08;;;;;;;10.60;10.40;;;9.40;99.90;;;;;;5081180;28;20495;-67
2023/09/30 05:49:36;;;;;;;11.00;10.80;;;9.40;99.90;;;;;;5087608;28;20507;-66
2023/09/30 05:52:03;;;;;;;10.17;9.97;;;9.40;99.90;;;;;;5074622;28;20458;-66
2023/09/30 05:54:30;;;;;;;11.00;10.80;;;9.30;99.90;;;;;;5084757;28;20446;-67
2023/09/30 05:56:57;;;;;;;10.67;10.47;;;9.30;99.90;;;;;;5076426;28;20738;-66
2023/09/30 05:59:26;;;;;;;10.47;10.27;;;9.40;99.90;;;;;;5076422;28;21029;-68
2023/09/30 06:01:53;;;;;;;11.00;10.80;;;9.40;99.90;;;;;;5080351;28;21033;-66
2023/09/30 06:04:21;;;;;;;11.07;10.87;;;9.50;99.90;;;;;;5080112;28;20498;-66
2023/09/30 06:06:48;;;;;;;11.00;10.80;;;9.40;99.90;;;;;;5074395;28;20501;-67
2023/09/30 06:09:15;;;;;;;11.73;11.43;;;9.50;99.90;;;;;;5067700;28;20463;-67
2023/09/30 06:11:42;;;;;;;11.00;10.80;;;9.50;99.90;;;;;;5070098;28;20466;-68
2023/09/30 06:14:09;;;;;;;10.47;10.27;;;9.50;99.90;;;;;;5077801;28;20550;-67
2023/09/30 06:16:37;;;;;;;10.97;10.77;;;9.50;99.90;;;;;;5096282;28;20987;-67
2023/09/30 06:19:04;;;;;;;10.63;10.43;;;9.50;99.90;;;;;;5078035;28;20480;-66
2023/09/30 06:21:34;;;;;;;10.67;10.47;;;9.50;99.90;;;;;;5074434;28;20540;-67
2023/09/30 06:24:01;;;;;;;10.90;10.70;;;9.60;99.90;;;;;;5087431;28;20462;-67
2023/09/30 06:26:29;;;;;;;10.43;10.23;;;9.60;99.90;;;;;;5090017;28;20485;-67
2023/09/30 06:28:56;;;;;;;10.10;9.90;;;9.70;99.90;;;;;;5076325;28;20908;-67
2023/09/30 06:31:24;;;;;;;10.50;10.30;;;9.70;99.90;;;;;;5083862;28;20453;-67
2023/09/30 06:33:56;;;;;;;10.23;10.03;;;9.80;99.90;;;;;;5073256;28;20467;-66
2023/09/30 06:36:23;;;;;;;9.97;9.77;;;10.00;99.90;;;;;;5085177;28;20541;-67
2023/09/30 06:38:51;;;;;;;9.80;9.60;;;10.00;99.90;;;;;;5077155;28;20485;-67
2023/09/30 06:41:19;;;;;;;10.20;10.00;;;10.00;99.90;;;;;;5079592;28;21045;-68
2023/09/30 06:43:46;;;;;;;10.47;10.27;;;10.10;99.90;;;;;;5081104;28;20521;-66
2023/09/30 06:46:13;;;;;;;9.83;9.63;;;10.20;99.90;;;;;;5070699;28;20487;-67
2023/09/30 06:48:42;;;;;;;9.50;9.30;;;10.30;99.90;;;;;;5082880;28;20455;-67
2023/09/30 06:51:14;;;;;;;8.50;8.40;;;10.30;99.90;;;;;;5080886;28;20466;-66
2023/09/30 06:53:41;;;;;;;9.80;9.60;;;10.40;99.90;;;;;;5076858;28;20454;-68
2023/09/30 06:56:10;;;;;;;9.70;9.50;;;10.50;99.90;;;;;;5079632;28;20476;-68
2023/09/30 06:58:36;;;;;;;9.47;9.27;;;10.60;99.90;;;;;;5083236;28;20459;-68
2023/09/30 07:01:03;;;;;;;10.00;9.80;;;10.70;99.90;;;;;;5075150;28;20524;-68
2023/09/30 07:03:32;;;;;;;9.47;9.27;;;10.80;99.90;;;;;;5076188;28;20836;-67
2023/09/30 07:06:00;;;;;;;9.17;8.97;;;11.10;99.90;;;;;;5079039;28;20483;-66
2023/09/30 07:08:30;;;;;;;8.93;8.83;;;11.30;99.90;;;;;;5089148;28;20450;-66
2023/09/30 07:10:58;;;;;;;8.90;8.80;;;11.60;99.90;;;;;;5088452;28;20458;-67
2023/09/30 07:13:26;;;;;;;7.87;7.77;;;11.80;99.90;;;;;;5077707;28;20521;-67
2023/09/30 07:15:53;;;;;;;7.50;7.40;;;11.90;99.90;;;;;;5086014;28;20467;-67
2023/09/30 07:18:20;;;;;;;6.97;6.87;;;12.10;99.90;;;;;;5088798;28;21056;-67
2023/09/30 07:20:47;;;;;;;7.07;6.97;;;12.20;99.90;;;;;;5081620;28;20469;-66
2023/09/30 07:23:14;;;;;;;7.83;7.73;;;12.20;99.90;;;;;;5089672;28;20462;-66
2023/09/30 07:25:44;;;;;;;7.30;7.20;;;12.40;99.90;;;;;;5084233;28;20508;-68
2023/09/30 07:28:13;;;;;;;7.53;7.43;;;12.70;99.90;;;;;;5087578;28;20474;-68
2023/09/30 07:30:40;;;;;;;7.37;7.27;;;12.80;99.90;;;;;;5079929;28;20807;-67
2023/09/30 07:33:09;;;;;;;6.90;6.80;;;12.90;99.90;;;;;;5077847;28;20462;-68
2023/09/30 07:35:36;;;;;;;7.00;6.90;;;13.00;99.90;;;;;;5086077;28;20539;-67
2023/09/30 07:38:04;;;;;;;7.00;6.90;;;13.10;99.90;;;;;;5084222;28;20482;-67
2023/09/30 07:40:32;;;;;;;7.20;7.10;;;13.10;99.90;;;;;;5084746;28;20458;-67
2023/09/30 07:43:00;;;;;;;6.33;6.23;;;13.20;99.90;;;;;;5080424;28;20979;-67
2023/09/30 07:45:27;;;;;;;7.40;7.30;;;13.30;99.90;;;;;;5083920;28;20492;-68
2023/09/30 07:47:55;;;;;;;6.03;5.93;;;13.40;99.90;;;;;;5088332;28;20565;-69
2023/09/30 07:50:22;;;;;;;6.70;6.60;;;13.40;99.90;;;;;;5089482;28;20532;-68
2023/09/30 07:52:48;;;;;;;6.70;6.60;;;13.60;99.90;;;;;;5084422;28;20817;-68
2023/09/30 07:55:16;;;;;;;6.93;6.83;;;13.60;99.90;;;;;;5078667;28;20833;-68
2023/09/30 07:57:44;;;;;;;7.33;7.23;;;13.80;99.90;;;;;;5074740;28;20462;-68
2023/09/30 08:00:15;;;;;;;6.70;6.60;;;13.90;99.90;;;;;;5084554;28;20939;-68
2023/09/30 08:02:42;;;;;;;6.10;6.00;;;14.00;99.90;;;;;;5089486;28;20470;-68
2023/09/30 08:05:11;;;;;;;6.20;6.10;;;14.10;99.90;;;;;;5080973;28;20967;-68
2023/09/30 08:07:39;;;;;;;6.23;6.13;;;14.20;99.90;;;;;;5081621;28;20590;-68
2023/09/30 08:10:12;;;;;;;6.50;6.40;;;14.30;99.90;;;;;;5074475;28;20462;-69
2023/09/30 08:12:39;;;;;;;6.57;6.47;;;14.40;99.90;;;;;;5085887;28;20465;-68
2023/09/30 08:15:07;;;;;;;6.17;6.07;;;14.50;99.90;;;;;;5089031;28;20462;-69
2023/09/30 08:17:36;;;;;;;5.83;5.73;;;14.60;99.90;;;;;;5086426;28;20580;-68
2023/09/30 08:20:04;;;;;;;6.70;6.60;;;14.70;99.90;;;;;;5082881;28;20470;-68
2023/09/30 08:22:31;;;;;;;6.63;6.53;;;14.80;99.90;;;;;;5078865;28;20515;-68
2023/09/30 08:24:58;;;;;;;7.00;6.90;;;14.90;99.90;;;;;;5074404;28;20857;-67
2023/09/30 08:27:26;;;;;;;6.30;6.20;;;14.90;99.90;;;;;;5080771;28;20914;-67
2023/09/30 08:29:53;;;;;;;6.60;6.50;;;14.90;99.90;;;;;;5086877;28;20489;-69
2023/09/30 08:32:21;;;;;;;6.90;6.80;;;14.90;99.90;;;;;;5081672;28;20490;-68
2023/09/30 08:34:50;;;;;;;6.50;6.40;;;14.90;99.90;;;;;;5089412;28;20457;-68
2023/09/30 08:37:16;;;;;;;6.80;6.70;;;15.10;99.90;;;;;;5085367;28;20466;-67
2023/09/30 08:39:43;;;;;;;6.57;6.47;;;15.10;99.90;;;;;;5078838;28;21007;-68
2023/09/30 08:42:12;;;;;;;6.83;6.73;;;15.20;99.90;;;;;;5086977;28;20481;-67
2023/09/30 08:44:40;;;;;;;6.40;6.30;;;15.30;99.90;;;;;;5090812;28;21143;-66
2023/09/30 08:47:09;;;;;;;7.07;6.97;;;15.30;99.90;;;;;;5094174;28;20991;-67
2023/09/30 08:49:39;;;;;;;6.27;6.17;;;15.40;99.90;;;;;;5083812;28;20469;-67
2023/09/30 08:52:11;;;;;;;6.40;6.30;;;15.50;99.90;;;;;;5091040;28;20486;-67
2023/09/30 08:54:38;;;;;;;6.53;6.43;;;15.60;99.90;;;;;;5091349;28;20857;-67
2023/09/30 08:57:08;;;;;;;7.00;6.90;;;15.50;99.90;;;;;;5084115;28;20466;-67
2023/09/30 08:59:36;;;;;;;7.27;7.17;;;15.60;99.90;;;;;;5082448;28;20537;-68
2023/09/30 09:02:08;;;;;;;7.07;6.97;;;15.70;99.90;;;;;;5081519;28;20458;-69
2023/09/30 09:04:36;;;;;;;7.73;7.63;;;15.80;99.90;;;;;;5082118;28;20457;-67
2023/09/30 09:07:03;;;;;;;6.40;6.30;;;15.80;99.90;;;;;;5090655;28;20489;-67
2023/09/30 09:09:33;;;;;;;6.53;6.43;;;15.90;99.90;;;;;;5086597;28;20865;-67
2023/09/30 09:12:00;;;;;;;7.10;7.00;;;16.00;99.90;;;;;;5076359;28;20465;-68
2023/09/30 09:14:42;;;;;;;6.70;6.60;;;16.10;99.90;;;;;;5081433;28;20473;-67
2023/09/30 09:17:12;;;;;;;7.00;6.90;;;16.10;99.90;;;;;;5081650;28;20793;-68
2023/09/30 09:19:39;;;;;;;7.77;7.67;;;16.20;99.90;;;;;;5079497;28;20542;-68
2023/09/30 09:22:06;;;;;;;7.13;7.03;;;16.20;99.90;;;;;;5084782;28;20454;-68
2023/09/30 09:24:36;;;;;;;7.00;6.90;;;16.30;99.90;;;;;;5089141;28;20453;-67
2023/09/30 09:27:07;;;;;;;7.23;7.13;;;16.40;99.90;;;;;;5077393;28;20530;-67
2023/09/30 09:29:35;;;;;;;7.03;6.93;;;16.50;99.90;;;;;;5077369;28;20493;-67
2023/09/30 09:32:10;;;;;;;8.23;8.13;;;16.70;99.90;;;;;;5090241;28;20815;-67
2023/09/30 09:34:37;;;;;;;9.60;9.40;;;16.80;99.90;;;;;;5086998;28;20545;-67
2023/09/30 09:37:15;;;;;;;8.83;8.70;;;16.90;99.90;;;;;;5078003;28;20476;-68
2023/09/30 09:39:50;;;;;;;9.40;9.20;;;17.00;99.90;;;;;;5080016;28;20502;-68
2023/09/30 09:42:25;;;;;;;8.30;8.20;;;17.40;99.90;;;;;;5078878;28;20493;-69
2023/09/30 09:44:57;;;;;;;8.20;8.10;;;18.10;99.90;;;;;;5077521;28;20537;-67
2023/09/30 09:47:25;;;;;;;10.53;10.33;;;19.00;99.90;;;;;;5076703;28;20494;-68
2023/09/30 09:49:54;;;;;;;10.60;10.40;;;19.50;99.90;;;;;;5081016;28;20454;-68
2023/09/30 09:52:24;;;;;;;10.67;10.47;;;19.80;99.90;;;;;;5085394;28;20550;-68
2023/09/30 09:54:53;;;;;;;10.43;10.23;;;20.30;99.90;;;;;;5084673;28;20462;-68
2023/09/30 09:57:21;;;;;;;10.10;9.90;;;20.50;99.90;;;;;;5084507;28;20469;-67
2023/09/30 09:59:50;;;;;;;10.87;10.57;;;20.80;99.90;;;;;;5068732;28;20815;-68
2023/09/30 10:02:17;;;;;;;10.90;10.60;;;21.00;99.90;;;;;;5079520;28;20484;-68
2023/09/30 10:04:46;;;;;;;11.73;11.43;;;21.00;99.90;;;;;;5089940;28;20884;-68
2023/09/30 10:07:20;;;;;;;11.30;11.00;;;21.20;99.90;;;;;;5080704;28;20573;-69
2023/09/30 10:09:50;;;;;;;11.60;11.30;;;20.70;99.90;;;;;;5087755;28;20458;-68
2023/09/30 10:12:21;;;;;;;11.90;11.60;;;20.60;99.90;;;;;;5078666;28;20462;-68
2023/09/30 10:14:49;;;;;;;11.90;11.60;;;20.40;99.90;;;;;;5078631;28;20811;-67
2023/09/30 10:17:17;;;;;;;11.90;11.60;;;20.50;99.90;;;;;;5078773;28;20524;-68
2023/09/30 10:20:06;;;;;;;11.80;11.50;;;20.60;99.90;;;;;;5081767;28;20485;-67
2023/09/30 10:22:33;;;;;;;11.60;11.30;;;20.50;99.90;;;;;;5086527;28;20462;-68
2023/09/30 10:25:01;;;;;;;11.40;11.10;;;20.50;99.90;;;;;;5084278;28;20469;-69
2023/09/30 10:27:37;;;;;;;12.07;11.77;;;21.10;99.90;;;;;;5086679;28;20513;-68
2023/09/30 10:30:13;;;;;;;11.60;11.30;;;22.00;99.90;;;;;;5078010;28;21016;-68
2023/09/30 10:33:12;;;;;;;11.43;11.13;;;21.90;99.90;;;;;;5076975;28;20457;-68
2023/09/30 10:35:47;;;;;;;12.30;12.00;;;22.20;99.90;;;;;;5087176;28;20486;-69
2023/09/30 10:38:40;;;;;;;12.97;12.57;;;22.80;99.90;;;;;;5078363;28;20536;-68
2023/09/30 10:41:09;;;;;;;12.33;12.03;;;22.40;99.90;;;;;;5085541;28;20835;-69
2023/09/30 10:43:38;;;;;;;12.40;12.10;;;21.70;99.90;;;;;;5083949;28;20534;-69
2023/09/30 10:46:30;;;;;;;12.30;12.00;;;21.10;99.90;;;;;;5077732;28;20469;-69
2023/09/30 10:48:57;;;;;;;12.47;12.17;;;21.20;99.90;;;;;;5079803;28;20469;-67
2023/09/30 10:51:24;;;;;;;12.50;12.20;;;21.10;99.90;;;;;;5082101;28;20462;-69
2023/09/30 10:53:52;;;;;;;12.60;12.30;;;21.20;99.90;;;;;;5083452;28;20657;-68
2023/09/30 10:56:20;;;;;;;12.00;11.70;;;21.80;99.90;;;;;;5087314;28;20838;-68
2023/09/30 10:58:51;;;;;;;11.90;11.60;;;22.90;99.90;;;;;;5088400;28;20450;-68
2023/09/30 11:01:19;;;;;;;12.30;12.00;;;23.80;99.90;;;;;;5084111;28;20458;-69
2023/09/30 11:03:47;;;;;;;12.90;12.50;;;24.20;99.90;;;;;;5083544;28;20470;-68
2023/09/30 11:06:17;;;;;;;12.50;12.20;;;24.20;99.90;;;;;;5074829;28;20470;-69
2023/09/30 11:08:47;;;;;;;12.60;12.30;;;23.30;99.90;;;;;;5088484;28;20859;-69
2023/09/30 11:11:15;;;;;;;12.10;11.80;;;22.60;99.90;;;;;;5088736;28;20454;-68
2023/09/30 11:13:42;;;;;;;11.57;11.27;;;22.20;99.90;;;;;;5079136;28;20498;-69
2023/09/30 11:16:11;;;;;;;11.77;11.47;;;22.30;99.90;;;;;;5087147;28;20465;-70
2023/09/30 11:18:38;;;;;;;11.90;11.60;;;22.80;99.90;;;;;;5080190;28;21566;-68
2023/09/30 11:21:10;;;;;;;12.50;12.20;;;23.50;99.90;;;;;;5071336;28;21068;-68
2023/09/30 11:23:37;;;;;;;12.17;11.87;;;23.90;99.90;;;;;;5081356;28;20472;-69
2023/09/30 11:26:06;;;;;;;13.00;12.60;;;24.10;99.90;;;;;;5082509;28;20462;-69
2023/09/30 11:28:41;;;;;;;12.90;12.50;;;24.50;99.90;;;;;;5084852;28;20500;-68
2023/09/30 11:31:15;;;;;;;12.50;12.20;;;25.60;99.90;;;;;;5075387;28;20468;-68
2023/09/30 11:33:52;;;;;;;12.50;12.20;;;26.10;99.90;;;;;;5085052;28;20561;-68
2023/09/30 11:36:20;;;;;;;13.30;12.90;;;26.40;99.90;;;;;;5082829;28;20965;-70
2023/09/30 11:38:48;;;;;;;13.03;12.63;;;26.10;99.90;;;;;;5073199;28;20543;-68
2023/09/30 11:41:18;;;;;;;12.60;12.30;;;25.80;99.90;;;;;;5085692;28;20998;-68
2023/09/30 11:44:00;;;;;;;12.70;12.40;;;25.80;99.90;;;;;;5088465;28;20891;-67
2023/09/30 11:46:29;;;;;;;13.30;12.90;;;25.40;99.90;;;;;;5077925;28;20519;-68
2023/09/30 11:49:01;;;;;;;13.50;13.10;;;25.00;99.90;;;;;;5087606;28;20493;-67
2023/09/30 11:51:29;;;;;;;14.87;14.37;;;24.80;99.90;;;;;;5070543;28;20463;-67
2023/09/30 11:53:57;;;;;;;14.07;13.67;;;24.60;99.90;;;;;;5072906;28;20463;-67
2023/09/30 11:56:28;;;;;;;13.60;13.20;;;24.10;99.90;;;;;;5078472;28;20474;-68
2023/09/30 11:58:57;;;;;;;13.77;13.37;;;24.30;99.90;;;;;;5084372;28;20458;-68
2023/09/30 12:01:25;;;;;;;13.77;13.37;;;24.60;99.90;;;;;;5088072;28;20450;-69
2023/09/30 12:03:55;;;;;;;13.63;13.23;;;24.60;99.90;;;;;;5081809;28;20507;-68
2023/09/30 12:06:23;;;;;;;13.90;13.50;;;24.80;99.90;;;;;;5074094;28;20468;-66
2023/09/30 12:08:51;;;;;;;14.50;14.00;;;24.90;99.90;;;;;;5083347;28;20490;-68
2023/09/30 12:11:20;;;;;;;14.80;14.30;;;24.40;99.90;;;;;;5073838;28;20934;-68
2023/09/30 12:13:48;;;;;;;14.30;13.90;;;24.30;99.90;;;;;;5086962;28;20450;-68
2023/09/30 12:16:16;;;;;;;13.97;13.57;;;23.90;99.90;;;;;;5088268;28;20929;-68
2023/09/30 12:18:43;;;;;;;12.83;12.47;;;23.70;99.90;;;;;;5088537;28;20493;-68
2023/09/30 12:21:13;;;;;;;13.10;12.70;;;23.70;99.90;;;;;;5084440;28;20844;-69
2023/09/30 12:23:40;;;;;;;13.40;13.00;;;23.80;99.90;;;;;;5068868;28;20458;-68
2023/09/30 12:26:08;;;;;;;14.60;14.10;;;23.70;99.90;;;;;;5087292;28;20791;-69
2023/09/30 12:28:35;;;;;;;14.33;13.90;;;23.60;99.90;;;;;;5088320;28;20497;-69
2023/09/30 12:31:04;;;;;;;14.20;13.80;;;23.70;99.90;;;;;;5082350;28;20457;-69
2023/09/30 12:33:32;;;;;;;14.23;13.80;;;23.90;99.90;;;;;;5088389;28;20453;-69
2023/09/30 12:36:00;;;;;;;14.30;13.90;;;24.20;99.90;;;;;;5079520;28;20504;-69
2023/09/30 12:38:29;;;;;;;14.50;14.00;;;24.50;99.90;;;;;;5082838;28;20531;-68
2023/09/30 12:40:57;;;;;;;14.23;13.83;;;24.50;99.90;;;;;;5074641;28;20478;-70
2023/09/30 12:43:26;;;;;;;13.70;13.30;;;24.50;99.90;;;;;;5077363;28;20769;-71
2023/09/30 12:45:53;;;;;;;13.50;13.10;;;24.50;99.90;;;;;;5087013;28;20455;-69
2023/09/30 12:48:21;;;;;;;14.10;13.70;;;24.60;99.90;;;;;;5083615;28;20493;-69